sensor_id;sensor_type;location;lat;lon;timestamp;temperature;humidity
75500;DHT22;64076;51.466;7.260;2022-11-20T00:01:25;15.70;30.70
75500;DHT22;64076;51.466;7.260;2022-11-20T00:03:52;15.70;30.80
75500;DHT22;64076;51.466;7.260;2022-11-20T00:06:19;15.70;30.80
75500;DHT22;64076;51.466;7.260;2022-11-20T00:08:46;15.70;30.80
75500;DHT22;64076;51.466;7.260;2022-11-20T00:11:16;15.70;30.90
75500;DHT22;64076;51.466;7.260;2022-11-20T00:13:43;15.70;30.90
75500;DHT22;64076;51.466;7.260;2022-11-20T00:16:12;15.70;30.80
75500;DHT22;64076;51.466;7.260;2022-11-20T00:18:38;15.70;30.80
75500;DHT22;64076;51.466;7.260;2022-11-20T00:21:17;15.70;30.80
75500;DHT22;64076;51.466;7.260;2022-11-20T00:23:42;15.70;30.80
75500;DHT22;64076;51.466;7.260;2022-11-20T00:26:11;15.70;30.80
75500;DHT22;64076;51.466;7.260;2022-11-20T00:28:39;15.70;30.80
75500;DHT22;64076;51.466;7.260;2022-11-20T00:31:07;15.70;30.90
75500;DHT22;64076;51.466;7.260;2022-11-20T00:33:33;15.60;30.90
75500;DHT22;64076;51.466;7.260;2022-11-20T00:36:07;15.60;31.00
75500;DHT22;64076;51.466;7.260;2022-11-20T00:38:34;15.60;31.00
75500;DHT22;64076;51.466;7.260;2022-11-20T00:41:01;15.60;31.10
75500;DHT22;64076;51.466;7.260;2022-11-20T00:43:27;15.60;31.10
75500;DHT22;64076;51.466;7.260;2022-11-20T00:46:00;15.70;31.20
75500;DHT22;64076;51.466;7.260;2022-11-20T00:48:26;15.60;31.20
75500;DHT22;64076;51.466;7.260;2022-11-20T00:50:52;15.60;31.30
75500;DHT22;64076;51.466;7.260;2022-11-20T00:53:17;15.70;31.30
75500;DHT22;64076;51.466;7.260;2022-11-20T00:55:43;15.70;31.30
75500;DHT22;64076;51.466;7.260;2022-11-20T00:58:17;15.70;31.40
75500;DHT22;64076;51.466;7.260;2022-11-20T01:00:42;15.70;31.40
75500;DHT22;64076;51.466;7.260;2022-11-20T01:03:08;15.70;31.40
75500;DHT22;64076;51.466;7.260;2022-11-20T01:05:34;15.70;31.50
75500;DHT22;64076;51.466;7.260;2022-11-20T01:08:00;15.70;31.50
75500;DHT22;64076;51.466;7.260;2022-11-20T01:10:26;15.70;31.50
75500;DHT22;64076;51.466;7.260;2022-11-20T01:12:51;15.70;31.50
75500;DHT22;64076;51.466;7.260;2022-11-20T01:15:37;15.70;31.50
75500;DHT22;64076;51.466;7.260;2022-11-20T01:18:03;15.70;31.50
75500;DHT22;64076;51.466;7.260;2022-11-20T01:20:28;15.70;31.60
75500;DHT22;64076;51.466;7.260;2022-11-20T01:22:54;15.70;31.70
75500;DHT22;64076;51.466;7.260;2022-11-20T01:25:19;15.70;31.70
75500;DHT22;64076;51.466;7.260;2022-11-20T01:27:45;15.70;31.70
75500;DHT22;64076;51.466;7.260;2022-11-20T01:30:11;15.70;31.70
75500;DHT22;64076;51.466;7.260;2022-11-20T01:32:36;15.70;31.70
75500;DHT22;64076;51.466;7.260;2022-11-20T01:35:02;15.70;31.70
75500;DHT22;64076;51.466;7.260;2022-11-20T01:37:29;15.70;31.80
75500;DHT22;64076;51.466;7.260;2022-11-20T01:39:54;15.70;31.80
75500;DHT22;64076;51.466;7.260;2022-11-20T01:42:20;15.70;31.80
75500;DHT22;64076;51.466;7.260;2022-11-20T01:48:08;15.70;32.00
75500;DHT22;64076;51.466;7.260;2022-11-20T01:50:33;15.70;32.00
75500;DHT22;64076;51.466;7.260;2022-11-20T01:53:06;15.70;32.10
75500;DHT22;64076;51.466;7.260;2022-11-20T01:55:41;15.70;32.20
75500;DHT22;64076;51.466;7.260;2022-11-20T01:58:08;15.70;32.20
75500;DHT22;64076;51.466;7.260;2022-11-20T02:00:34;15.70;32.30
75500;DHT22;64076;51.466;7.260;2022-11-20T02:03:06;15.60;32.30
75500;DHT22;64076;51.466;7.260;2022-11-20T02:05:57;15.70;32.40
75500;DHT22;64076;51.466;7.260;2022-11-20T02:08:26;15.70;32.40
75500;DHT22;64076;51.466;7.260;2022-11-20T02:10:51;15.60;32.40
75500;DHT22;64076;51.466;7.260;2022-11-20T02:13:17;15.70;32.50
75500;DHT22;64076;51.466;7.260;2022-11-20T02:16:02;15.70;32.40
75500;DHT22;64076;51.466;7.260;2022-11-20T02:18:28;15.70;32.40
75500;DHT22;64076;51.466;7.260;2022-11-20T02:24:01;15.70;32.60
75500;DHT22;64076;51.466;7.260;2022-11-20T02:26:30;15.70;32.60
75500;DHT22;64076;51.466;7.260;2022-11-20T02:28:58;15.80;32.60
75500;DHT22;64076;51.466;7.260;2022-11-20T02:31:24;15.70;32.60
75500;DHT22;64076;51.466;7.260;2022-11-20T02:33:57;15.70;32.70
75500;DHT22;64076;51.466;7.260;2022-11-20T02:36:26;15.70;32.80
75500;DHT22;64076;51.466;7.260;2022-11-20T02:38:52;15.70;32.80
75500;DHT22;64076;51.466;7.260;2022-11-20T02:41:17;15.70;32.80
75500;DHT22;64076;51.466;7.260;2022-11-20T02:43:43;15.70;32.80
75500;DHT22;64076;51.466;7.260;2022-11-20T02:46:08;15.80;32.80
75500;DHT22;64076;51.466;7.260;2022-11-20T02:48:34;15.80;32.80
75500;DHT22;64076;51.466;7.260;2022-11-20T02:51:00;15.80;32.90
75500;DHT22;64076;51.466;7.260;2022-11-20T02:53:26;15.80;32.90
75500;DHT22;64076;51.466;7.260;2022-11-20T02:55:51;15.80;33.00
75500;DHT22;64076;51.466;7.260;2022-11-20T02:58:17;15.80;33.00
75500;DHT22;64076;51.466;7.260;2022-11-20T03:00:43;15.80;33.00
75500;DHT22;64076;51.466;7.260;2022-11-20T03:03:08;15.80;33.10
75500;DHT22;64076;51.466;7.260;2022-11-20T03:05:34;15.80;33.10
75500;DHT22;64076;51.466;7.260;2022-11-20T03:07:59;15.80;33.10
75500;DHT22;64076;51.466;7.260;2022-11-20T03:10:25;15.80;33.10
75500;DHT22;64076;51.466;7.260;2022-11-20T03:12:54;15.80;33.10
75500;DHT22;64076;51.466;7.260;2022-11-20T03:15:21;15.80;33.20
75500;DHT22;64076;51.466;7.260;2022-11-20T03:17:47;15.80;33.20
75500;DHT22;64076;51.466;7.260;2022-11-20T03:20:12;15.90;33.20
75500;DHT22;64076;51.466;7.260;2022-11-20T03:22:38;15.80;33.20
75500;DHT22;64076;51.466;7.260;2022-11-20T03:25:04;15.80;33.30
75500;DHT22;64076;51.466;7.260;2022-11-20T03:27:34;15.90;33.30
75500;DHT22;64076;51.466;7.260;2022-11-20T03:30:00;15.80;33.40
75500;DHT22;64076;51.466;7.260;2022-11-20T03:32:26;15.80;33.40
75500;DHT22;64076;51.466;7.260;2022-11-20T03:34:51;15.80;33.40
75500;DHT22;64076;51.466;7.260;2022-11-20T03:37:17;15.80;33.40
75500;DHT22;64076;51.466;7.260;2022-11-20T03:39:42;15.90;33.40
75500;DHT22;64076;51.466;7.260;2022-11-20T03:42:08;15.90;33.40
75500;DHT22;64076;51.466;7.260;2022-11-20T03:44:52;15.90;33.50
75500;DHT22;64076;51.466;7.260;2022-11-20T03:47:18;15.90;33.50
75500;DHT22;64076;51.466;7.260;2022-11-20T03:49:46;15.90;33.50
75500;DHT22;64076;51.466;7.260;2022-11-20T03:52:12;15.90;33.50
75500;DHT22;64076;51.466;7.260;2022-11-20T03:54:37;15.90;33.60
75500;DHT22;64076;51.466;7.260;2022-11-20T03:57:03;15.90;33.50
75500;DHT22;64076;51.466;7.260;2022-11-20T03:59:28;15.90;33.50
75500;DHT22;64076;51.466;7.260;2022-11-20T04:01:54;15.90;33.60
75500;DHT22;64076;51.466;7.260;2022-11-20T04:04:19;15.90;33.60
75500;DHT22;64076;51.466;7.260;2022-11-20T04:06:45;16.00;33.60
75500;DHT22;64076;51.466;7.260;2022-11-20T04:09:11;16.00;33.70
75500;DHT22;64076;51.466;7.260;2022-11-20T04:11:39;16.00;33.70
75500;DHT22;64076;51.466;7.260;2022-11-20T04:14:11;16.00;33.70
75500;DHT22;64076;51.466;7.260;2022-11-20T04:16:37;16.00;33.70
75500;DHT22;64076;51.466;7.260;2022-11-20T04:19:05;16.00;33.80
75500;DHT22;64076;51.466;7.260;2022-11-20T04:21:32;16.00;33.80
75500;DHT22;64076;51.466;7.260;2022-11-20T04:23:58;16.00;33.80
75500;DHT22;64076;51.466;7.260;2022-11-20T04:26:26;16.00;33.80
75500;DHT22;64076;51.466;7.260;2022-11-20T04:28:52;16.00;33.80
75500;DHT22;64076;51.466;7.260;2022-11-20T04:31:20;16.00;33.80
75500;DHT22;64076;51.466;7.260;2022-11-20T04:33:46;16.00;33.80
75500;DHT22;64076;51.466;7.260;2022-11-20T04:36:14;16.00;33.80
75500;DHT22;64076;51.466;7.260;2022-11-20T04:38:40;16.00;33.90
75500;DHT22;64076;51.466;7.260;2022-11-20T04:41:08;16.00;33.90
75500;DHT22;64076;51.466;7.260;2022-11-20T04:43:36;16.00;33.90
75500;DHT22;64076;51.466;7.260;2022-11-20T04:46:01;16.00;33.90
75500;DHT22;64076;51.466;7.260;2022-11-20T04:48:28;16.00;33.90
75500;DHT22;64076;51.466;7.260;2022-11-20T04:50:54;16.00;33.90
75500;DHT22;64076;51.466;7.260;2022-11-20T04:53:21;16.00;33.90
75500;DHT22;64076;51.466;7.260;2022-11-20T04:55:47;16.00;34.00
75500;DHT22;64076;51.466;7.260;2022-11-20T04:58:13;16.00;34.00
75500;DHT22;64076;51.466;7.260;2022-11-20T05:00:39;16.00;34.00
75500;DHT22;64076;51.466;7.260;2022-11-20T05:03:04;16.10;34.00
75500;DHT22;64076;51.466;7.260;2022-11-20T05:05:30;16.10;34.00
75500;DHT22;64076;51.466;7.260;2022-11-20T05:07:57;16.10;34.00
75500;DHT22;64076;51.466;7.260;2022-11-20T05:10:23;16.10;34.00
75500;DHT22;64076;51.466;7.260;2022-11-20T05:12:49;16.10;34.00
75500;DHT22;64076;51.466;7.260;2022-11-20T05:15:15;16.10;34.00
75500;DHT22;64076;51.466;7.260;2022-11-20T05:17:40;16.10;34.10
75500;DHT22;64076;51.466;7.260;2022-11-20T05:20:06;16.10;34.10
75500;DHT22;64076;51.466;7.260;2022-11-20T05:22:32;16.10;34.10
75500;DHT22;64076;51.466;7.260;2022-11-20T05:24:57;16.10;34.10
75500;DHT22;64076;51.466;7.260;2022-11-20T05:27:23;16.10;34.10
75500;DHT22;64076;51.466;7.260;2022-11-20T05:29:48;16.10;34.20
75500;DHT22;64076;51.466;7.260;2022-11-20T05:32:14;16.10;34.20
75500;DHT22;64076;51.466;7.260;2022-11-20T05:34:39;16.10;34.30
75500;DHT22;64076;51.466;7.260;2022-11-20T05:37:05;16.00;34.30
75500;DHT22;64076;51.466;7.260;2022-11-20T05:39:30;16.00;34.30
75500;DHT22;64076;51.466;7.260;2022-11-20T05:41:56;16.00;34.40
75500;DHT22;64076;51.466;7.260;2022-11-20T05:44:40;16.00;34.40
75500;DHT22;64076;51.466;7.260;2022-11-20T05:47:06;16.00;34.30
75500;DHT22;64076;51.466;7.260;2022-11-20T05:49:32;16.10;34.40
75500;DHT22;64076;51.466;7.260;2022-11-20T05:51:57;16.10;34.40
75500;DHT22;64076;51.466;7.260;2022-11-20T05:54:23;16.10;34.40
75500;DHT22;64076;51.466;7.260;2022-11-20T05:56:48;16.10;34.40
75500;DHT22;64076;51.466;7.260;2022-11-20T05:59:14;16.10;34.40
75500;DHT22;64076;51.466;7.260;2022-11-20T06:01:39;16.10;34.50
75500;DHT22;64076;51.466;7.260;2022-11-20T06:04:05;16.10;34.50
75500;DHT22;64076;51.466;7.260;2022-11-20T06:06:30;16.10;34.60
75500;DHT22;64076;51.466;7.260;2022-11-20T06:08:56;16.00;34.60
75500;DHT22;64076;51.466;7.260;2022-11-20T06:11:24;16.10;34.50
75500;DHT22;64076;51.466;7.260;2022-11-20T06:13:50;16.10;34.50
75500;DHT22;64076;51.466;7.260;2022-11-20T06:16:17;16.10;34.50
75500;DHT22;64076;51.466;7.260;2022-11-20T06:18:44;16.10;34.60
75500;DHT22;64076;51.466;7.260;2022-11-20T06:21:17;16.10;34.60
75500;DHT22;64076;51.466;7.260;2022-11-20T06:23:44;16.20;34.60
75500;DHT22;64076;51.466;7.260;2022-11-20T06:26:18;16.20;34.60
75500;DHT22;64076;51.466;7.260;2022-11-20T06:28:44;16.10;34.60
75500;DHT22;64076;51.466;7.260;2022-11-20T06:31:11;16.10;34.60
75500;DHT22;64076;51.466;7.260;2022-11-20T06:33:37;16.10;34.70
75500;DHT22;64076;51.466;7.260;2022-11-20T06:36:03;16.10;34.70
75500;DHT22;64076;51.466;7.260;2022-11-20T06:38:29;16.10;34.70
75500;DHT22;64076;51.466;7.260;2022-11-20T06:40:55;16.10;34.70
75500;DHT22;64076;51.466;7.260;2022-11-20T06:43:22;16.20;34.70
75500;DHT22;64076;51.466;7.260;2022-11-20T06:45:54;16.10;34.70
75500;DHT22;64076;51.466;7.260;2022-11-20T06:48:20;16.20;34.70
75500;DHT22;64076;51.466;7.260;2022-11-20T06:50:50;16.20;34.70
75500;DHT22;64076;51.466;7.260;2022-11-20T06:53:15;16.20;34.70
75500;DHT22;64076;51.466;7.260;2022-11-20T06:55:48;16.20;34.70
75500;DHT22;64076;51.466;7.260;2022-11-20T06:58:14;16.20;34.60
75500;DHT22;64076;51.466;7.260;2022-11-20T07:00:41;16.20;34.70
75500;DHT22;64076;51.466;7.260;2022-11-20T07:03:08;16.20;34.70
75500;DHT22;64076;51.466;7.260;2022-11-20T07:05:34;16.10;34.60
75500;DHT22;64076;51.466;7.260;2022-11-20T07:08:00;16.20;34.60
75500;DHT22;64076;51.466;7.260;2022-11-20T07:10:26;16.10;34.60
75500;DHT22;64076;51.466;7.260;2022-11-20T07:12:52;16.10;34.60
75500;DHT22;64076;51.466;7.260;2022-11-20T07:15:19;16.10;34.60
75500;DHT22;64076;51.466;7.260;2022-11-20T07:17:44;16.10;34.60
75500;DHT22;64076;51.466;7.260;2022-11-20T07:20:10;16.10;34.60
75500;DHT22;64076;51.466;7.260;2022-11-20T07:22:36;16.10;34.60
75500;DHT22;64076;51.466;7.260;2022-11-20T07:25:02;16.10;34.60
75500;DHT22;64076;51.466;7.260;2022-11-20T07:27:29;16.10;34.60
75500;DHT22;64076;51.466;7.260;2022-11-20T07:29:54;16.20;34.50
75500;DHT22;64076;51.466;7.260;2022-11-20T07:32:21;16.30;34.40
75500;DHT22;64076;51.466;7.260;2022-11-20T07:34:46;16.30;34.40
75500;DHT22;64076;51.466;7.260;2022-11-20T07:37:12;16.30;34.40
75500;DHT22;64076;51.466;7.260;2022-11-20T07:39:38;16.20;34.40
75500;DHT22;64076;51.466;7.260;2022-11-20T07:42:04;16.30;34.30
75500;DHT22;64076;51.466;7.260;2022-11-20T07:44:30;16.30;34.30
75500;DHT22;64076;51.466;7.260;2022-11-20T07:46:56;16.30;34.30
75500;DHT22;64076;51.466;7.260;2022-11-20T07:49:22;16.30;34.30
75500;DHT22;64076;51.466;7.260;2022-11-20T07:51:50;16.30;34.20
75500;DHT22;64076;51.466;7.260;2022-11-20T07:54:15;16.30;34.30
75500;DHT22;64076;51.466;7.260;2022-11-20T07:56:41;16.30;34.30
75500;DHT22;64076;51.466;7.260;2022-11-20T07:59:07;16.30;34.30
75500;DHT22;64076;51.466;7.260;2022-11-20T08:01:32;16.30;34.20
75500;DHT22;64076;51.466;7.260;2022-11-20T08:03:58;16.30;34.20
75500;DHT22;64076;51.466;7.260;2022-11-20T08:06:23;16.30;34.20
75500;DHT22;64076;51.466;7.260;2022-11-20T08:08:50;16.30;34.20
75500;DHT22;64076;51.466;7.260;2022-11-20T08:11:15;16.30;34.20
75500;DHT22;64076;51.466;7.260;2022-11-20T08:14:00;16.30;34.20
75500;DHT22;64076;51.466;7.260;2022-11-20T08:16:41;16.30;34.20
75500;DHT22;64076;51.466;7.260;2022-11-20T08:19:07;16.30;34.20
75500;DHT22;64076;51.466;7.260;2022-11-20T08:21:33;16.30;34.20
75500;DHT22;64076;51.466;7.260;2022-11-20T08:23:59;16.30;34.10
75500;DHT22;64076;51.466;7.260;2022-11-20T08:26:25;16.40;34.20
75500;DHT22;64076;51.466;7.260;2022-11-20T08:28:57;16.40;34.10
75500;DHT22;64076;51.466;7.260;2022-11-20T08:31:24;16.40;34.10
75500;DHT22;64076;51.466;7.260;2022-11-20T08:33:50;16.40;34.10
75500;DHT22;64076;51.466;7.260;2022-11-20T08:36:16;16.40;34.10
75500;DHT22;64076;51.466;7.260;2022-11-20T08:38:50;16.50;34.10
75500;DHT22;64076;51.466;7.260;2022-11-20T08:41:16;16.50;34.10
75500;DHT22;64076;51.466;7.260;2022-11-20T08:44:01;16.40;34.10
75500;DHT22;64076;51.466;7.260;2022-11-20T08:46:38;16.50;34.20
75500;DHT22;64076;51.466;7.260;2022-11-20T08:49:07;16.50;34.20
75500;DHT22;64076;51.466;7.260;2022-11-20T08:51:36;16.50;34.20
75500;DHT22;64076;51.466;7.260;2022-11-20T08:54:02;16.60;34.10
75500;DHT22;64076;51.466;7.260;2022-11-20T08:56:28;16.60;34.20
75500;DHT22;64076;51.466;7.260;2022-11-20T08:58:54;16.60;34.20
75500;DHT22;64076;51.466;7.260;2022-11-20T09:01:20;16.60;34.20
75500;DHT22;64076;51.466;7.260;2022-11-20T09:03:46;16.70;34.20
75500;DHT22;64076;51.466;7.260;2022-11-20T09:06:13;16.70;34.20
75500;DHT22;64076;51.466;7.260;2022-11-20T09:08:38;16.70;34.10
75500;DHT22;64076;51.466;7.260;2022-11-20T09:11:05;16.70;34.20
75500;DHT22;64076;51.466;7.260;2022-11-20T09:13:31;16.70;34.20
75500;DHT22;64076;51.466;7.260;2022-11-20T09:15:59;16.80;34.20
75500;DHT22;64076;51.466;7.260;2022-11-20T09:18:26;16.80;34.20
75500;DHT22;64076;51.466;7.260;2022-11-20T09:20:56;16.80;34.20
75500;DHT22;64076;51.466;7.260;2022-11-20T09:23:22;16.80;34.10
75500;DHT22;64076;51.466;7.260;2022-11-20T09:25:47;16.90;34.20
75500;DHT22;64076;51.466;7.260;2022-11-20T09:28:13;16.90;34.20
75500;DHT22;64076;51.466;7.260;2022-11-20T09:30:38;16.90;34.20
75500;DHT22;64076;51.466;7.260;2022-11-20T09:33:05;16.90;34.20
75500;DHT22;64076;51.466;7.260;2022-11-20T09:35:31;16.90;34.20
75500;DHT22;64076;51.466;7.260;2022-11-20T09:37:57;16.90;34.20
75500;DHT22;64076;51.466;7.260;2022-11-20T09:40:26;16.90;34.20
75500;DHT22;64076;51.466;7.260;2022-11-20T09:43:19;16.90;34.10
75500;DHT22;64076;51.466;7.260;2022-11-20T09:54:24;16.90;34.00
75500;DHT22;64076;51.466;7.260;2022-11-20T09:56:56;16.90;34.00
75500;DHT22;64076;51.466;7.260;2022-11-20T09:59:43;16.90;34.00
75500;DHT22;64076;51.466;7.260;2022-11-20T10:07:33;17.00;33.90
75500;DHT22;64076;51.466;7.260;2022-11-20T10:10:01;17.00;33.90
75500;DHT22;64076;51.466;7.260;2022-11-20T10:21:35;17.00;34.00
75500;DHT22;64076;51.466;7.260;2022-11-20T10:24:33;17.00;34.00
75500;DHT22;64076;51.466;7.260;2022-11-20T10:30:11;17.00;33.90
75500;DHT22;64076;51.466;7.260;2022-11-20T10:32:43;17.00;33.90
75500;DHT22;64076;51.466;7.260;2022-11-20T10:35:35;17.00;34.00
75500;DHT22;64076;51.466;7.260;2022-11-20T10:38:05;17.10;33.90
75500;DHT22;64076;51.466;7.260;2022-11-20T10:40:42;17.10;33.90
75500;DHT22;64076;51.466;7.260;2022-11-20T10:43:21;17.10;33.90
75500;DHT22;64076;51.466;7.260;2022-11-20T10:46:11;17.10;33.90
75500;DHT22;64076;51.466;7.260;2022-11-20T10:48:41;17.10;33.90
75500;DHT22;64076;51.466;7.260;2022-11-20T10:51:35;17.10;33.90
75500;DHT22;64076;51.466;7.260;2022-11-20T10:54:06;17.20;33.90
75500;DHT22;64076;51.466;7.260;2022-11-20T11:07:37;17.10;33.90
75500;DHT22;64076;51.466;7.260;2022-11-20T11:10:16;17.10;33.90
75500;DHT22;64076;51.466;7.260;2022-11-20T11:12:45;17.10;33.90
75500;DHT22;64076;51.466;7.260;2022-11-20T11:15:24;17.10;33.90
75500;DHT22;64076;51.466;7.260;2022-11-20T11:17:49;17.10;33.90
75500;DHT22;64076;51.466;7.260;2022-11-20T11:22:49;17.10;34.00
75500;DHT22;64076;51.466;7.260;2022-11-20T11:25:34;17.10;33.90
75500;DHT22;64076;51.466;7.260;2022-11-20T11:30:28;17.10;33.90
75500;DHT22;64076;51.466;7.260;2022-11-20T11:33:25;17.10;34.00
75500;DHT22;64076;51.466;7.260;2022-11-20T11:35:56;17.10;33.90
75500;DHT22;64076;51.466;7.260;2022-11-20T11:41:02;17.10;34.00
75500;DHT22;64076;51.466;7.260;2022-11-20T11:43:34;17.10;34.00
75500;DHT22;64076;51.466;7.260;2022-11-20T11:46:32;17.10;34.00
75500;DHT22;64076;51.466;7.260;2022-11-20T11:54:23;17.20;34.00
75500;DHT22;64076;51.466;7.260;2022-11-20T11:56:51;17.20;34.00
75500;DHT22;64076;51.466;7.260;2022-11-20T11:59:33;17.20;34.00
75500;DHT22;64076;51.466;7.260;2022-11-20T12:04:59;17.20;34.00
75500;DHT22;64076;51.466;7.260;2022-11-20T12:09:54;17.20;34.00
75500;DHT22;64076;51.466;7.260;2022-11-20T12:12:32;17.20;34.00
75500;DHT22;64076;51.466;7.260;2022-11-20T12:15:01;17.20;33.90
75500;DHT22;64076;51.466;7.260;2022-11-20T12:17:27;17.20;34.00
75500;DHT22;64076;51.466;7.260;2022-11-20T12:19:53;17.30;33.90
75500;DHT22;64076;51.466;7.260;2022-11-20T12:22:26;17.20;33.90
75500;DHT22;64076;51.466;7.260;2022-11-20T12:25:20;17.20;33.90
75500;DHT22;64076;51.466;7.260;2022-11-20T12:33:41;17.20;34.00
75500;DHT22;64076;51.466;7.260;2022-11-20T12:36:43;17.20;34.00
75500;DHT22;64076;51.466;7.260;2022-11-20T12:42:18;17.20;34.10
75500;DHT22;64076;51.466;7.260;2022-11-20T12:47:55;17.20;34.10
75500;DHT22;64076;51.466;7.260;2022-11-20T12:53:40;17.20;34.20
75500;DHT22;64076;51.466;7.260;2022-11-20T13:07:13;17.10;34.30
75500;DHT22;64076;51.466;7.260;2022-11-20T13:09:45;17.10;34.30
75500;DHT22;64076;51.466;7.260;2022-11-20T13:12:25;17.10;34.40
75500;DHT22;64076;51.466;7.260;2022-11-20T13:17:45;17.10;34.40
75500;DHT22;64076;51.466;7.260;2022-11-20T13:20:16;17.10;34.40
75500;DHT22;64076;51.466;7.260;2022-11-20T13:22:50;17.10;34.40
75500;DHT22;64076;51.466;7.260;2022-11-20T13:25:29;17.00;34.40
75500;DHT22;64076;51.466;7.260;2022-11-20T13:27:57;17.00;34.50
75500;DHT22;64076;51.466;7.260;2022-11-20T13:30:25;17.00;34.50
75500;DHT22;64076;51.466;7.260;2022-11-20T13:38:03;16.90;34.60
75500;DHT22;64076;51.466;7.260;2022-11-20T13:40:29;16.90;34.60
75500;DHT22;64076;51.466;7.260;2022-11-20T13:42:56;16.90;34.60
75500;DHT22;64076;51.466;7.260;2022-11-20T13:45:25;16.90;34.60
75500;DHT22;64076;51.466;7.260;2022-11-20T13:47:52;16.90;34.60
75500;DHT22;64076;51.466;7.260;2022-11-20T13:50:19;16.90;34.70
75500;DHT22;64076;51.466;7.260;2022-11-20T13:58:44;17.00;34.60
75500;DHT22;64076;51.466;7.260;2022-11-20T14:01:24;17.00;34.60
75500;DHT22;64076;51.466;7.260;2022-11-20T14:03:51;17.00;34.60
75500;DHT22;64076;51.466;7.260;2022-11-20T14:06:25;17.10;34.60
75500;DHT22;64076;51.466;7.260;2022-11-20T14:08:53;17.00;34.60
75500;DHT22;64076;51.466;7.260;2022-11-20T14:11:21;17.00;34.60
75500;DHT22;64076;51.466;7.260;2022-11-20T14:13:57;17.00;34.60
75500;DHT22;64076;51.466;7.260;2022-11-20T14:16:24;17.00;34.60
75500;DHT22;64076;51.466;7.260;2022-11-20T14:18:50;16.90;34.70
75500;DHT22;64076;51.466;7.260;2022-11-20T14:21:29;17.00;34.80
75500;DHT22;64076;51.466;7.260;2022-11-20T14:24:05;16.90;34.90
75500;DHT22;64076;51.466;7.260;2022-11-20T14:26:32;16.90;34.90
75500;DHT22;64076;51.466;7.260;2022-11-20T14:28:58;16.90;35.00
75500;DHT22;64076;51.466;7.260;2022-11-20T14:31:26;16.90;35.10
75500;DHT22;64076;51.466;7.260;2022-11-20T14:33:55;16.80;35.20
75500;DHT22;64076;51.466;7.260;2022-11-20T14:36:24;16.80;35.20
75500;DHT22;64076;51.466;7.260;2022-11-20T14:38:51;16.80;35.20
75500;DHT22;64076;51.466;7.260;2022-11-20T14:41:24;16.80;35.20
75500;DHT22;64076;51.466;7.260;2022-11-20T14:43:56;16.80;35.30
75500;DHT22;64076;51.466;7.260;2022-11-20T14:46:23;16.80;35.40
75500;DHT22;64076;51.466;7.260;2022-11-20T14:48:55;16.80;35.40
75500;DHT22;64076;51.466;7.260;2022-11-20T14:53:53;16.80;35.50
75500;DHT22;64076;51.466;7.260;2022-11-20T14:56:24;16.80;35.60
75500;DHT22;64076;51.466;7.260;2022-11-20T14:58:57;16.80;35.70
75500;DHT22;64076;51.466;7.260;2022-11-20T15:01:28;16.80;35.80
75500;DHT22;64076;51.466;7.260;2022-11-20T15:04:20;16.80;35.90
75500;DHT22;64076;51.466;7.260;2022-11-20T15:06:50;16.80;36.00
75500;DHT22;64076;51.466;7.260;2022-11-20T15:09:16;16.80;36.20
75500;DHT22;64076;51.466;7.260;2022-11-20T15:11:58;16.80;36.20
75500;DHT22;64076;51.466;7.260;2022-11-20T15:14:25;16.70;36.40
75500;DHT22;64076;51.466;7.260;2022-11-20T15:16:51;16.70;36.40
75500;DHT22;64076;51.466;7.260;2022-11-20T15:19:20;16.70;36.60
75500;DHT22;64076;51.466;7.260;2022-11-20T15:21:46;16.70;36.70
75500;DHT22;64076;51.466;7.260;2022-11-20T15:24:11;16.70;36.70
75500;DHT22;64076;51.466;7.260;2022-11-20T15:26:38;16.70;36.80
75500;DHT22;64076;51.466;7.260;2022-11-20T15:29:15;16.70;36.80
75500;DHT22;64076;51.466;7.260;2022-11-20T15:31:46;16.60;36.90
75500;DHT22;64076;51.466;7.260;2022-11-20T15:34:12;16.70;37.10
75500;DHT22;64076;51.466;7.260;2022-11-20T15:36:39;16.60;37.10
75500;DHT22;64076;51.466;7.260;2022-11-20T15:39:05;16.60;37.20
75500;DHT22;64076;51.466;7.260;2022-11-20T15:41:35;16.60;37.30
75500;DHT22;64076;51.466;7.260;2022-11-20T15:44:02;16.60;37.30
75500;DHT22;64076;51.466;7.260;2022-11-20T15:46:30;16.60;37.30
75500;DHT22;64076;51.466;7.260;2022-11-20T15:48:59;16.60;37.50
75500;DHT22;64076;51.466;7.260;2022-11-20T15:51:34;16.60;37.50
75500;DHT22;64076;51.466;7.260;2022-11-20T15:54:00;16.60;37.70
75500;DHT22;64076;51.466;7.260;2022-11-20T15:56:27;16.60;37.60
75500;DHT22;64076;51.466;7.260;2022-11-20T15:58:52;16.60;37.70
75500;DHT22;64076;51.466;7.260;2022-11-20T16:01:21;16.60;37.80
75500;DHT22;64076;51.466;7.260;2022-11-20T16:03:47;16.60;37.90
75500;DHT22;64076;51.466;7.260;2022-11-20T16:06:12;16.60;37.90
75500;DHT22;64076;51.466;7.260;2022-11-20T16:08:38;16.60;38.00
75500;DHT22;64076;51.466;7.260;2022-11-20T16:11:04;16.60;38.10
75500;DHT22;64076;51.466;7.260;2022-11-20T16:13:31;16.60;38.00
75500;DHT22;64076;51.466;7.260;2022-11-20T16:16:34;16.60;38.10
75500;DHT22;64076;51.466;7.260;2022-11-20T16:19:00;16.60;38.20
75500;DHT22;64076;51.466;7.260;2022-11-20T16:21:27;16.60;38.10
75500;DHT22;64076;51.466;7.260;2022-11-20T16:24:05;16.60;38.10
75500;DHT22;64076;51.466;7.260;2022-11-20T16:26:32;16.70;38.20
75500;DHT22;64076;51.466;7.260;2022-11-20T16:29:02;16.60;38.30
75500;DHT22;64076;51.466;7.260;2022-11-20T16:31:29;16.70;38.30
75500;DHT22;64076;51.466;7.260;2022-11-20T16:34:00;16.60;38.40
75500;DHT22;64076;51.466;7.260;2022-11-20T16:36:27;16.60;38.50
75500;DHT22;64076;51.466;7.260;2022-11-20T16:38:55;16.60;38.70
75500;DHT22;64076;51.466;7.260;2022-11-20T16:41:21;16.70;38.60
75500;DHT22;64076;51.466;7.260;2022-11-20T16:43:54;16.70;38.50
75500;DHT22;64076;51.466;7.260;2022-11-20T16:46:23;16.70;38.60
75500;DHT22;64076;51.466;7.260;2022-11-20T16:48:54;16.80;38.70
75500;DHT22;64076;51.466;7.260;2022-11-20T16:51:20;16.80;38.60
75500;DHT22;64076;51.466;7.260;2022-11-20T16:53:46;16.80;38.70
75500;DHT22;64076;51.466;7.260;2022-11-20T16:56:16;16.80;38.70
75500;DHT22;64076;51.466;7.260;2022-11-20T16:58:48;16.80;38.80
75500;DHT22;64076;51.466;7.260;2022-11-20T17:01:16;16.90;38.90
75500;DHT22;64076;51.466;7.260;2022-11-20T17:03:43;16.90;38.90
75500;DHT22;64076;51.466;7.260;2022-11-20T17:06:17;16.90;39.00
75500;DHT22;64076;51.466;7.260;2022-11-20T17:08:44;16.90;39.20
75500;DHT22;64076;51.466;7.260;2022-11-20T17:11:16;16.90;39.20
75500;DHT22;64076;51.466;7.260;2022-11-20T17:13:42;16.90;39.20
75500;DHT22;64076;51.466;7.260;2022-11-20T17:16:11;17.00;39.20
75500;DHT22;64076;51.466;7.260;2022-11-20T17:18:37;17.00;39.50
75500;DHT22;64076;51.466;7.260;2022-11-20T17:21:03;17.00;39.50
75500;DHT22;64076;51.466;7.260;2022-11-20T17:23:34;17.00;39.50
75500;DHT22;64076;51.466;7.260;2022-11-20T17:26:02;17.00;39.70